createdAt,value
2023-04-13T00:01:41.886Z,1.90
2023-04-13T00:04:11.215Z,2.10
2023-04-13T00:06:43.756Z,1.90
2023-04-13T00:09:12.490Z,2.10
2023-04-13T00:11:43.968Z,2.00
2023-04-13T00:14:13.049Z,1.90
2023-04-13T00:16:42.849Z,2.00
2023-04-13T00:19:13.461Z,1.80
2023-04-13T00:21:44.234Z,2.05
2023-04-13T00:24:13.671Z,2.00
2023-04-13T00:26:45.941Z,1.88
2023-04-13T00:29:15.526Z,1.98
2023-04-13T00:31:47.047Z,2.20
2023-04-13T00:34:17.720Z,1.90
2023-04-13T00:36:47.137Z,2.10
2023-04-13T00:39:16.633Z,2.10
2023-04-13T00:41:46.064Z,2.17
2023-04-13T00:44:17.294Z,2.08
2023-04-13T00:46:52.168Z,1.92
2023-04-13T00:49:22.294Z,2.00
2023-04-13T00:51:51.964Z,2.10
2023-04-13T00:54:22.013Z,1.98
2023-04-13T00:56:53.280Z,1.95
2023-04-13T00:59:24.679Z,2.30
2023-04-13T01:02:01.081Z,2.10
2023-04-13T01:04:36.222Z,2.13
2023-04-13T01:07:48.554Z,2.08
2023-04-13T01:10:37.683Z,2.10
2023-04-13T01:13:17.495Z,2.10
2023-04-13T01:16:06.820Z,2.00
2023-04-13T01:18:44.331Z,2.20
2023-04-13T01:21:20.772Z,2.10
2023-04-13T01:24:11.133Z,2.00
2023-04-13T01:27:33.308Z,2.20
2023-04-13T01:30:05.299Z,2.10
2023-04-13T01:32:36.578Z,1.85
2023-04-13T01:35:07.958Z,2.00
2023-04-13T01:37:36.614Z,1.95
2023-04-13T01:40:13.581Z,1.90
2023-04-13T01:42:50.233Z,2.03
2023-04-13T01:45:22.142Z,2.33
2023-04-13T01:48:05.437Z,2.20
2023-04-13T01:51:35.711Z,2.05
2023-04-13T01:54:36.316Z,2.08
2023-04-13T01:57:05.951Z,2.08
2023-04-13T01:59:37.321Z,2.00
2023-04-13T02:02:08.152Z,2.00
2023-04-13T02:04:41.312Z,2.20
2023-04-13T02:07:13.659Z,2.20
2023-04-13T02:09:48.886Z,2.00
2023-04-13T02:12:18.411Z,2.10
2023-04-13T02:14:48.140Z,2.10
2023-04-13T02:17:18.040Z,2.10
2023-04-13T02:19:47.936Z,1.85
2023-04-13T02:22:17.533Z,2.30
2023-04-13T02:24:46.090Z,1.85
2023-04-13T02:27:15.036Z,2.08
2023-04-13T02:29:45.410Z,2.10
2023-04-13T02:32:18.188Z,2.03
2023-04-13T02:34:49.249Z,2.25
2023-04-13T02:37:18.262Z,2.10
2023-04-13T02:39:48.290Z,2.10
2023-04-13T02:42:18.156Z,2.10
2023-04-13T02:44:48.345Z,2.20
2023-04-13T02:47:18.252Z,2.20
2023-04-13T02:49:48.108Z,2.00
2023-04-13T02:52:29.661Z,2.08
2023-04-13T02:55:06.383Z,2.15
2023-04-13T02:57:47.505Z,1.88
2023-04-13T03:00:17.918Z,2.08
2023-04-13T03:02:54.221Z,2.20
2023-04-13T03:05:28.712Z,2.10
2023-04-13T03:08:00.464Z,2.30
2023-04-13T03:10:31.894Z,2.03
2023-04-13T03:13:02.720Z,2.00
2023-04-13T03:15:32.896Z,2.35
2023-04-13T03:18:05.160Z,2.38
2023-04-13T03:20:36.131Z,2.30
2023-04-13T03:23:05.243Z,2.17
2023-04-13T03:25:37.078Z,2.20
2023-04-13T03:28:09.100Z,2.20
2023-04-13T03:30:43.825Z,2.10
2023-04-13T03:33:13.196Z,2.30
2023-04-13T03:35:44.107Z,1.90
2023-04-13T03:38:22.691Z,2.22
2023-04-13T03:40:52.192Z,2.30
2023-04-13T03:43:24.863Z,2.17
2023-04-13T03:46:02.998Z,2.28
2023-04-13T03:48:34.558Z,2.25
2023-04-13T03:51:09.768Z,2.30
2023-04-13T03:53:50.629Z,2.20
2023-04-13T03:56:24.477Z,2.25
2023-04-13T03:58:54.884Z,2.15
2023-04-13T04:01:32.801Z,2.25
2023-04-13T04:04:03.397Z,2.22
2023-04-13T04:06:33.924Z,2.38
2023-04-13T04:09:18.753Z,2.40
2023-04-13T04:11:49.648Z,2.25
2023-04-13T04:14:28.087Z,2.50
2023-04-13T04:17:06.152Z,2.55
2023-04-13T04:19:34.887Z,2.25
2023-04-13T04:22:05.742Z,2.22
2023-04-13T04:24:40.050Z,2.22
2023-04-13T04:27:15.102Z,2.10
2023-04-13T04:29:49.933Z,2.30
2023-04-13T04:32:25.972Z,2.38
2023-04-13T04:34:59.908Z,2.50
2023-04-13T04:37:38.152Z,2.55
2023-04-13T04:42:44.109Z,2.20
2023-04-13T04:45:29.331Z,2.28
2023-04-13T04:48:04.233Z,2.65
2023-04-13T04:50:34.323Z,2.50
2023-04-13T04:53:16.205Z,2.40
2023-04-13T04:55:47.432Z,2.50
2023-04-13T04:58:34.153Z,2.30
2023-04-13T05:01:04.708Z,2.38
2023-04-13T05:03:34.470Z,2.35
2023-04-13T05:06:21.793Z,2.40
2023-04-13T05:08:52.718Z,2.50
2023-04-13T05:11:22.021Z,2.60
2023-04-13T05:13:50.654Z,2.60
2023-04-13T05:16:22.516Z,2.33
2023-04-13T05:18:55.030Z,2.90
2023-04-13T05:21:44.915Z,2.85
2023-04-13T05:24:14.333Z,2.60
2023-04-13T05:26:44.773Z,2.33
2023-04-13T05:29:17.934Z,2.67
2023-04-13T05:31:48.331Z,2.70
2023-04-13T05:34:17.884Z,2.55
2023-04-13T05:37:02.304Z,2.63
2023-04-13T05:39:33.625Z,2.50
2023-04-13T05:42:02.400Z,2.67
2023-04-13T05:44:34.137Z,2.67
2023-04-13T05:47:03.525Z,2.60
2023-04-13T05:49:37.411Z,2.65
2023-04-13T05:52:08.786Z,2.40
2023-04-13T05:54:44.442Z,2.28
2023-04-13T05:57:13.614Z,2.42
2023-04-13T05:59:48.193Z,2.33
2023-04-13T06:02:23.069Z,2.57
2023-04-13T06:04:54.276Z,2.50
2023-04-13T06:07:25.652Z,2.50
2023-04-13T06:09:55.029Z,2.38
2023-04-13T06:12:24.841Z,2.40
2023-04-13T06:14:54.410Z,2.30
2023-04-13T06:17:24.125Z,2.30
2023-04-13T06:19:52.659Z,2.30
2023-04-13T06:22:21.807Z,2.33
2023-04-13T06:24:55.008Z,2.42
2023-04-13T06:27:25.494Z,2.60
2023-04-13T06:29:54.464Z,2.60
2023-04-13T06:32:24.140Z,2.50
2023-04-13T06:34:52.958Z,2.47
2023-04-13T06:37:22.001Z,2.40
2023-04-13T06:39:55.112Z,2.45
2023-04-13T06:42:30.034Z,2.40
2023-04-13T06:48:12.515Z,2.60
2023-04-13T06:50:42.915Z,2.60
2023-04-13T06:53:14.529Z,2.60
2023-04-13T06:55:45.947Z,2.30
2023-04-13T06:58:14.902Z,2.35
2023-04-13T07:00:44.769Z,2.65
2023-04-13T07:03:14.513Z,2.90
2023-04-13T07:05:46.514Z,2.65
2023-04-13T07:08:20.334Z,2.40
2023-04-13T07:10:55.248Z,2.45
2023-04-13T07:13:34.182Z,2.22
2023-04-13T07:16:02.630Z,2.50
2023-04-13T07:18:33.741Z,2.70
2023-04-13T07:21:02.619Z,2.67
2023-04-13T07:23:38.156Z,2.38
2023-04-13T07:26:08.518Z,2.53
2023-04-13T07:28:37.809Z,2.40
2023-04-13T07:31:07.070Z,2.72
2023-04-13T07:33:40.613Z,2.73
2023-04-13T07:36:10.760Z,2.60
2023-04-13T07:38:42.913Z,2.30
2023-04-13T07:41:16.735Z,2.55
2023-04-13T07:43:48.942Z,2.60
2023-04-13T07:46:17.759Z,2.60
2023-04-13T07:48:46.290Z,2.53
2023-04-13T07:51:24.653Z,2.30
2023-04-13T07:53:54.227Z,2.50
2023-04-13T07:56:24.223Z,2.55
2023-04-13T07:58:54.569Z,2.50
2023-04-13T08:01:24.230Z,2.50
2023-04-13T08:03:53.218Z,2.70
2023-04-13T08:06:25.252Z,2.38
2023-04-13T08:08:54.998Z,2.60
2023-04-13T08:11:26.883Z,2.10
2023-04-13T08:14:05.477Z,2.70
2023-04-13T08:16:35.669Z,2.30
2023-04-13T08:19:12.500Z,2.63
2023-04-13T08:21:48.678Z,2.30
2023-04-13T08:24:17.973Z,2.60
2023-04-13T08:26:46.442Z,2.50
2023-04-13T08:29:16.611Z,2.42
2023-04-13T08:31:45.304Z,2.30
2023-04-13T08:34:14.712Z,2.50
2023-04-13T08:36:46.459Z,2.20
2023-04-13T08:39:16.542Z,2.53
2023-04-13T08:41:49.114Z,2.35
2023-04-13T08:44:21.892Z,2.17
2023-04-13T08:46:54.723Z,2.30
2023-04-13T08:49:31.391Z,2.40
2023-04-13T08:52:16.974Z,2.50
2023-04-13T08:54:51.376Z,2.60
2023-04-13T08:57:26.180Z,2.40
2023-04-13T08:59:54.533Z,2.40
2023-04-13T09:02:26.827Z,2.60
2023-04-13T09:05:06.877Z,2.55
2023-04-13T09:07:37.916Z,2.50
2023-04-13T09:10:20.691Z,2.40
2023-04-13T09:12:52.794Z,2.65
2023-04-13T09:15:25.916Z,2.50
2023-04-13T09:18:21.188Z,2.55
2023-04-13T09:21:01.577Z,2.23
2023-04-13T09:23:32.053Z,2.33
2023-04-13T09:26:10.057Z,2.38
2023-04-13T09:28:49.344Z,2.40
2023-04-13T09:31:18.380Z,2.40
2023-04-13T09:33:50.038Z,2.22
2023-04-13T09:36:22.323Z,2.50
2023-04-13T09:38:53.515Z,2.33
2023-04-13T09:41:42.481Z,2.50
2023-04-13T09:44:30.477Z,2.42
2023-04-13T09:47:02.395Z,2.22
2023-04-13T09:49:40.281Z,2.10
2023-04-13T09:52:30.560Z,2.30
2023-04-13T09:55:01.338Z,2.20
2023-04-13T09:57:34.176Z,2.33
2023-04-13T10:00:02.766Z,2.30
2023-04-13T10:02:41.368Z,2.40
2023-04-13T10:05:12.458Z,2.40
2023-04-13T10:07:44.874Z,2.50
2023-04-13T10:10:14.177Z,2.47
2023-04-13T10:12:56.221Z,2.40
2023-04-13T10:15:28.089Z,2.30
2023-04-13T10:18:04.952Z,2.55
2023-04-13T10:20:35.321Z,2.55
2023-04-13T10:23:06.907Z,2.55
2023-04-13T10:25:39.604Z,2.30
2023-04-13T10:28:10.384Z,2.60
2023-04-13T10:30:51.476Z,2.40
2023-04-13T10:33:22.102Z,2.40
2023-04-13T10:36:00.620Z,2.50
2023-04-13T10:38:30.824Z,2.45
2023-04-13T10:41:02.329Z,2.33
2023-04-13T10:43:33.449Z,2.53
2023-04-13T10:46:10.229Z,2.20
2023-04-13T10:48:44.388Z,2.25
2023-04-13T10:51:13.156Z,2.13
2023-04-13T10:53:42.678Z,2.20
2023-04-13T10:56:20.104Z,2.60
2023-04-13T10:58:54.767Z,2.40
2023-04-13T11:01:24.513Z,2.40
2023-04-13T11:04:03.779Z,2.53
2023-04-13T11:06:39.753Z,2.83
2023-04-13T11:09:14.411Z,2.60
2023-04-13T11:11:52.087Z,2.40
2023-04-13T11:14:24.449Z,2.40
2023-04-13T11:16:58.448Z,2.30
2023-04-13T11:19:29.845Z,2.30
2023-04-13T11:21:59.567Z,2.50
2023-04-13T11:24:36.464Z,2.45
2023-04-13T11:27:22.149Z,2.50
2023-04-13T11:30:08.005Z,2.25
2023-04-13T11:32:40.782Z,2.40
2023-04-13T11:35:17.585Z,2.30
2023-04-13T11:37:49.953Z,2.40
2023-04-13T11:40:23.925Z,2.22
2023-04-13T11:42:55.936Z,2.40
2023-04-13T11:45:29.523Z,2.30
2023-04-13T11:48:00.508Z,2.20
2023-04-13T11:50:32.176Z,2.50
2023-04-13T11:53:02.084Z,2.33
2023-04-13T11:55:42.548Z,2.22
2023-04-13T11:58:22.251Z,2.38
2023-04-13T12:00:50.628Z,2.30
2023-04-13T12:06:02.458Z,2.30
2023-04-13T12:08:33.870Z,2.28
2023-04-13T12:11:39.030Z,2.17
2023-04-13T12:14:06.964Z,2.22
2023-04-13T12:19:14.030Z,2.20
2023-04-13T12:21:57.676Z,1.95
2023-04-13T12:24:42.637Z,2.15
2023-04-13T12:29:44.439Z,2.30
2023-04-13T12:32:17.686Z,2.30
2023-04-13T12:34:46.460Z,2.20
2023-04-13T12:37:15.545Z,1.95
2023-04-13T12:39:45.748Z,2.17
2023-04-13T12:42:15.510Z,2.15
2023-04-13T12:44:46.017Z,2.00
2023-04-13T12:47:15.356Z,2.40
2023-04-13T12:49:57.834Z,2.38
2023-04-13T12:52:42.400Z,2.22
2023-04-13T12:55:13.711Z,2.38
2023-04-13T12:57:43.319Z,2.25
2023-04-13T13:00:17.121Z,2.00
2023-04-13T13:02:47.009Z,2.20
2023-04-13T13:05:18.263Z,2.40
2023-04-13T13:07:48.664Z,2.30
2023-04-13T13:10:28.997Z,2.28
2023-04-13T13:12:59.755Z,2.30
2023-04-13T13:15:33.914Z,2.20
2023-04-13T13:18:04.716Z,2.30
2023-04-13T13:20:34.493Z,2.10
2023-04-13T13:23:05.920Z,2.20
2023-04-13T13:25:38.733Z,2.10
2023-04-13T13:28:14.949Z,2.20
2023-04-13T13:30:45.597Z,2.20
2023-04-13T13:33:14.803Z,2.10
2023-04-13T13:35:44.598Z,2.20
2023-04-13T13:38:13.745Z,2.35
2023-04-13T13:40:43.366Z,2.17
2023-04-13T13:43:14.355Z,2.25
2023-04-13T13:45:44.606Z,2.22
2023-04-13T13:48:13.818Z,2.20
2023-04-13T13:50:52.686Z,2.17
2023-04-13T13:53:22.870Z,2.40
2023-04-13T13:55:52.480Z,2.25
2023-04-13T13:58:22.099Z,2.20
2023-04-13T14:00:51.252Z,2.05
2023-04-13T14:03:21.516Z,2.17
2023-04-13T14:05:50.621Z,2.33
2023-04-13T14:08:19.764Z,2.10
2023-04-13T14:10:49.282Z,2.00
2023-04-13T14:13:18.937Z,2.58
2023-04-13T14:15:49.133Z,2.20
2023-04-13T14:18:18.466Z,2.05
2023-04-13T14:20:47.205Z,2.50
2023-04-13T14:23:17.696Z,2.20
2023-04-13T14:25:49.147Z,2.20
2023-04-13T14:28:19.535Z,2.33
2023-04-13T14:30:49.691Z,2.30
2023-04-13T14:33:20.628Z,2.20
2023-04-13T14:35:49.835Z,2.28
2023-04-13T14:38:18.764Z,2.25
2023-04-13T14:40:49.044Z,2.08
2023-04-13T14:43:18.739Z,2.20
2023-04-13T14:45:48.905Z,2.10
2023-04-13T14:48:18.166Z,2.00
2023-04-13T14:50:48.626Z,2.20
2023-04-13T14:53:18.604Z,2.05
2023-04-13T14:55:48.669Z,2.20
2023-04-13T14:58:18.278Z,2.40
2023-04-13T15:00:50.302Z,2.20
2023-04-13T15:03:19.616Z,2.13
2023-04-13T15:05:50.338Z,2.30
2023-04-13T15:08:20.884Z,1.98
2023-04-13T15:10:50.082Z,2.20
2023-04-13T15:13:19.040Z,2.08
2023-04-13T15:15:49.716Z,2.15
2023-04-13T15:18:18.482Z,2.25
2023-04-13T15:20:48.142Z,2.30
2023-04-13T15:23:19.804Z,2.28
2023-04-13T15:25:50.777Z,2.40
2023-04-13T15:28:21.117Z,1.92
2023-04-13T15:30:52.831Z,2.20
2023-04-13T15:33:22.541Z,2.10
2023-04-13T15:35:52.923Z,2.10
2023-04-13T15:38:22.979Z,2.50
2023-04-13T15:40:53.176Z,2.20
2023-04-13T15:43:22.548Z,2.20
2023-04-13T15:45:52.014Z,2.38
2023-04-13T15:48:22.662Z,2.28
2023-04-13T15:51:57.006Z,2.17
2023-04-13T15:54:27.073Z,2.10
2023-04-13T15:57:03.566Z,2.30
2023-04-13T15:59:35.333Z,2.35
2023-04-13T16:02:05.611Z,2.30
2023-04-13T16:04:35.330Z,2.08
2023-04-13T16:07:13.756Z,2.30
2023-04-13T16:10:01.159Z,2.38
2023-04-13T16:12:34.560Z,2.17
2023-04-13T16:15:06.707Z,2.17
2023-04-13T16:17:38.732Z,2.03
2023-04-13T16:20:23.266Z,2.40
2023-04-13T16:22:53.980Z,2.20
2023-04-13T16:25:22.985Z,2.13
2023-04-13T16:27:54.888Z,2.05
2023-04-13T16:30:25.139Z,2.28
2023-04-13T16:32:54.176Z,2.30
2023-04-13T16:35:22.824Z,2.10
2023-04-13T16:37:52.690Z,2.10
2023-04-13T16:40:22.263Z,2.10
2023-04-13T16:42:50.490Z,2.10
2023-04-13T16:45:18.685Z,2.00
2023-04-13T16:47:48.337Z,2.10
2023-04-13T16:51:05.262Z,2.10
2023-04-13T16:53:34.710Z,2.10
2023-04-13T16:56:05.953Z,2.05
2023-04-13T16:58:36.902Z,2.10
2023-04-13T17:01:07.271Z,2.15
2023-04-13T17:03:37.259Z,2.10
2023-04-13T17:06:08.331Z,2.10
2023-04-13T17:08:36.911Z,2.22
2023-04-13T17:11:07.676Z,2.10
2023-04-13T17:13:38.232Z,2.35
2023-04-13T17:16:08.790Z,2.08
2023-04-13T17:19:08.639Z,2.30
2023-04-13T17:21:38.095Z,2.17
2023-04-13T17:24:06.928Z,2.20
2023-04-13T17:26:36.996Z,2.20
2023-04-13T17:29:06.994Z,2.30
2023-04-13T17:31:35.711Z,1.85
2023-04-13T17:34:06.214Z,2.20
2023-04-13T17:36:34.585Z,2.00
2023-04-13T17:39:03.341Z,2.10
2023-04-13T17:41:34.536Z,2.00
2023-04-13T17:44:04.369Z,1.95
2023-04-13T17:46:32.756Z,1.90
2023-04-13T17:49:02.174Z,2.05
2023-04-13T17:51:33.053Z,2.13
2023-04-13T17:54:02.747Z,2.00
2023-04-13T17:56:32.146Z,2.20
2023-04-13T17:59:02.629Z,2.17
2023-04-13T18:01:32.770Z,2.20
2023-04-13T18:04:01.904Z,1.98
2023-04-13T18:06:32.734Z,1.83
2023-04-13T18:09:01.870Z,2.00
2023-04-13T18:11:32.706Z,2.25
2023-04-13T18:14:03.532Z,2.00
2023-04-13T18:16:33.584Z,2.00
2023-04-13T18:19:02.965Z,2.30
2023-04-13T18:21:33.493Z,2.20
2023-04-13T18:24:03.326Z,2.10
2023-04-13T18:26:32.729Z,2.10
2023-04-13T18:29:03.384Z,2.13
2023-04-13T18:31:34.917Z,1.90
2023-04-13T18:34:07.142Z,2.20
2023-04-13T18:36:39.039Z,2.22
2023-04-13T18:39:09.388Z,2.17
2023-04-13T18:41:40.970Z,2.08
2023-04-13T18:44:12.001Z,2.10
2023-04-13T18:46:43.447Z,2.15
2023-04-13T18:49:13.936Z,1.90
2023-04-13T18:51:44.499Z,2.10
2023-04-13T18:54:12.933Z,2.20
2023-04-13T18:56:41.815Z,1.98
2023-04-13T18:59:11.499Z,1.95
2023-04-13T19:01:41.848Z,2.00
2023-04-13T19:04:11.329Z,1.90
2023-04-13T19:06:41.888Z,2.03
2023-04-13T19:09:11.374Z,2.15
2023-04-13T19:12:01.848Z,1.90
2023-04-13T19:14:31.720Z,2.10
2023-04-13T19:17:02.072Z,2.05
2023-04-13T19:19:32.965Z,1.98
2023-04-13T19:22:01.985Z,2.10
2023-04-13T19:24:31.737Z,1.95
2023-04-13T19:27:01.058Z,1.98
2023-04-13T19:29:31.324Z,2.00
2023-04-13T19:32:02.232Z,2.10
2023-04-13T19:34:32.499Z,1.80
2023-04-13T19:37:02.731Z,1.98
2023-04-13T19:39:33.096Z,1.88
2023-04-13T19:42:02.265Z,2.35
2023-04-13T19:44:32.414Z,2.10
2023-04-13T19:47:02.676Z,2.20
2023-04-13T19:49:32.373Z,2.00
2023-04-13T19:52:02.718Z,1.98
2023-04-13T19:54:32.698Z,2.10
2023-04-13T19:57:01.833Z,2.03
2023-04-13T19:59:32.904Z,1.92
2023-04-13T20:02:02.597Z,2.10
2023-04-13T20:04:33.469Z,2.00
2023-04-13T20:07:03.084Z,1.92
2023-04-13T20:09:32.944Z,2.20
2023-04-13T20:12:02.399Z,2.10
2023-04-13T20:14:33.060Z,1.90
2023-04-13T20:17:02.219Z,1.77
2023-04-13T20:19:34.278Z,2.00
2023-04-13T20:22:04.960Z,2.00
2023-04-13T20:24:34.826Z,2.10
2023-04-13T20:27:03.396Z,2.10
2023-04-13T20:29:33.868Z,2.10
2023-04-13T20:32:03.208Z,2.10
2023-04-13T20:34:35.187Z,2.05
2023-04-13T20:37:10.321Z,1.98
2023-04-13T20:39:51.320Z,2.17
2023-04-13T20:42:23.233Z,2.17
2023-04-13T20:44:59.340Z,2.10
2023-04-13T20:47:32.555Z,1.73
2023-04-13T20:50:02.172Z,2.10
2023-04-13T20:52:31.425Z,2.15
2023-04-13T20:55:01.294Z,1.80
2023-04-13T20:57:33.973Z,2.00
2023-04-13T21:00:08.356Z,1.83
2023-04-13T21:02:39.476Z,1.90
2023-04-13T21:05:10.404Z,2.22
2023-04-13T21:07:42.483Z,2.30
2023-04-13T21:10:12.364Z,2.00
2023-04-13T21:12:40.964Z,2.08
2023-04-13T21:15:10.429Z,2.13
2023-04-13T21:17:39.425Z,2.20
2023-04-13T21:20:09.984Z,2.10
2023-04-13T21:22:39.111Z,2.30
2023-04-13T21:25:08.686Z,2.25
2023-04-13T21:27:37.905Z,1.98
2023-04-13T21:30:09.089Z,2.10
2023-04-13T21:32:38.471Z,2.10
2023-04-13T21:35:07.775Z,2.00
2023-04-13T21:37:37.336Z,2.30
2023-04-13T21:40:07.184Z,2.13
2023-04-13T21:42:38.210Z,2.00
2023-04-13T21:45:07.119Z,1.98
2023-04-13T21:47:36.567Z,2.13
2023-04-13T21:50:06.303Z,2.00
2023-04-13T21:52:34.723Z,2.58
2023-04-13T21:55:04.653Z,2.30
2023-04-13T21:57:33.548Z,2.20
2023-04-13T22:00:16.964Z,2.10
2023-04-13T22:02:47.558Z,2.30
2023-04-13T22:05:18.805Z,1.90
2023-04-13T22:07:49.401Z,2.08
2023-04-13T22:10:21.434Z,2.00
2023-04-13T22:12:50.460Z,1.98
2023-04-13T22:15:19.201Z,2.20
2023-04-13T22:17:49.436Z,1.77
2023-04-13T22:20:18.344Z,2.00
2023-04-13T22:22:46.783Z,2.20
2023-04-13T22:25:16.205Z,2.10
2023-04-13T22:27:45.214Z,1.92
2023-04-13T22:30:14.317Z,2.28
2023-04-13T22:32:43.261Z,1.95
2023-04-13T22:35:13.199Z,2.20
2023-04-13T22:37:42.457Z,2.13
2023-04-13T22:40:12.482Z,2.30
2023-04-13T22:42:42.181Z,2.08
2023-04-13T22:45:11.448Z,2.28
2023-04-13T22:47:41.470Z,1.90
2023-04-13T22:50:11.262Z,2.30
2023-04-13T22:52:41.227Z,2.00
2023-04-13T22:55:10.554Z,2.38
2023-04-13T22:57:38.967Z,2.25
2023-04-13T23:00:09.248Z,2.30
2023-04-13T23:02:38.860Z,2.20
2023-04-13T23:05:09.856Z,2.10
2023-04-13T23:07:38.985Z,2.45
2023-04-13T23:10:10.078Z,2.20
2023-04-13T23:12:39.021Z,2.10
2023-04-13T23:15:09.546Z,2.20
2023-04-13T23:17:38.897Z,2.42
2023-04-13T23:20:09.140Z,2.45
2023-04-13T23:22:38.802Z,2.10
2023-04-13T23:25:08.353Z,2.25
2023-04-13T23:27:38.360Z,2.30
2023-04-13T23:30:07.317Z,2.30
2023-04-13T23:32:37.216Z,2.40
2023-04-13T23:35:07.249Z,2.22
2023-04-13T23:37:36.932Z,2.38
2023-04-13T23:40:06.460Z,2.28
2023-04-13T23:42:34.664Z,2.30
2023-04-13T23:45:03.391Z,2.20
2023-04-13T23:47:32.818Z,1.95
2023-04-13T23:50:02.643Z,2.38
2023-04-13T23:52:32.722Z,2.15
2023-04-13T23:55:02.521Z,2.20
2023-04-13T23:57:35.156Z,2.22
